createdAt,value
2023-09-02T00:00:56.775Z,12.15
2023-09-02T00:01:58.295Z,12.03
2023-09-02T00:02:59.819Z,12.18
2023-09-02T00:04:03.931Z,12.15
2023-09-02T00:05:09.145Z,12.12
2023-09-02T00:06:10.742Z,12.11
2023-09-02T00:07:12.259Z,12.10
2023-09-02T00:08:13.711Z,12.06
2023-09-02T00:09:16.460Z,12.05
2023-09-02T00:10:18.210Z,12.04
2023-09-02T00:11:19.720Z,12.03
2023-09-02T00:12:21.176Z,12.03
2023-09-02T00:13:22.768Z,12.00
2023-09-02T00:14:24.217Z,12.01
2023-09-02T00:15:25.702Z,11.96
2023-09-02T00:16:27.265Z,11.94
2023-09-02T00:17:29.126Z,11.90
2023-09-02T00:18:30.572Z,11.91
2023-09-02T00:19:32.041Z,11.90
2023-09-02T00:20:33.544Z,11.92
2023-09-02T00:21:35.091Z,11.91
2023-09-02T00:22:36.587Z,11.91
2023-09-02T00:23:40.515Z,11.87
2023-09-02T00:24:41.951Z,11.87
2023-09-02T00:25:43.429Z,11.88
2023-09-02T00:26:44.878Z,11.88
2023-09-02T00:27:46.305Z,11.90
2023-09-02T00:28:47.815Z,11.93
2023-09-02T00:29:49.329Z,12.00
2023-09-02T00:30:50.814Z,12.04
2023-09-02T00:31:52.276Z,12.07
2023-09-02T00:32:53.749Z,12.09
2023-09-02T00:33:55.279Z,12.08
2023-09-02T00:34:56.727Z,12.05
2023-09-02T00:35:58.233Z,12.04
2023-09-02T00:36:59.818Z,12.00
2023-09-02T00:38:01.308Z,12.01
2023-09-02T00:39:03.056Z,11.97
2023-09-02T00:40:06.810Z,11.95
2023-09-02T00:41:13.741Z,11.94
2023-09-02T00:42:20.612Z,11.92
2023-09-02T00:43:22.094Z,11.90
2023-09-02T00:44:24.066Z,11.88
2023-09-02T00:45:25.797Z,11.87
2023-09-02T00:46:27.409Z,11.83
2023-09-02T00:47:28.964Z,11.81
2023-09-02T00:48:30.487Z,11.81
2023-09-02T00:49:34.911Z,11.79
2023-09-02T00:50:36.557Z,11.77
2023-09-02T00:51:38.061Z,11.71
2023-09-02T00:52:39.522Z,11.73
2023-09-02T00:53:41.118Z,11.71
2023-09-02T00:54:42.631Z,11.71
2023-09-02T00:55:44.233Z,11.70
2023-09-02T00:56:45.729Z,11.69
2023-09-02T00:57:47.537Z,11.69
2023-09-02T00:58:49.056Z,11.68
2023-09-02T00:59:51.052Z,11.63
2023-09-02T01:00:53.542Z,11.65
2023-09-02T01:01:56.912Z,11.62
2023-09-02T01:02:59.752Z,11.61
2023-09-02T01:04:04.755Z,11.61
2023-09-02T01:05:07.292Z,11.55
2023-09-02T01:06:09.912Z,11.58
2023-09-02T01:07:11.829Z,11.58
2023-09-02T01:08:14.561Z,11.55
2023-09-02T01:09:16.065Z,11.52
2023-09-02T01:10:18.516Z,11.47
2023-09-02T01:11:19.979Z,11.51
2023-09-02T01:12:21.447Z,11.53
2023-09-02T01:13:23.005Z,11.47
2023-09-02T01:14:24.510Z,11.50
2023-09-02T01:15:25.928Z,11.46
2023-09-02T01:16:27.472Z,11.43
2023-09-02T01:17:29.054Z,11.41
2023-09-02T01:18:31.144Z,11.39
2023-09-02T01:19:33.610Z,11.37
2023-09-02T01:21:15.489Z,11.34
2023-09-02T01:22:38.955Z,11.39
2023-09-02T01:24:02.387Z,11.36
2023-09-02T01:25:47.583Z,11.32
2023-09-02T01:27:19.911Z,11.34
2023-09-02T01:28:29.516Z,11.30
2023-09-02T01:29:37.472Z,11.30
2023-09-02T01:30:41.420Z,11.33
2023-09-02T01:31:42.964Z,11.34
2023-09-02T01:32:47.193Z,11.35
2023-09-02T01:33:50.233Z,11.35
2023-09-02T01:34:52.522Z,11.31
2023-09-02T01:35:56.193Z,11.31
2023-09-02T01:37:00.415Z,11.28
2023-09-02T01:38:04.641Z,11.31
2023-09-02T01:39:08.677Z,11.28
2023-09-02T01:40:15.590Z,11.30
2023-09-02T01:41:17.099Z,11.28
2023-09-02T01:42:19.220Z,11.26
2023-09-02T01:43:22.247Z,11.28
2023-09-02T01:44:24.723Z,11.26
2023-09-02T01:45:30.730Z,11.23
2023-09-02T01:46:32.247Z,11.20
2023-09-02T01:47:33.809Z,11.23
2023-09-02T01:48:36.090Z,11.22
2023-09-02T01:49:38.760Z,11.21
2023-09-02T01:50:42.754Z,11.20
2023-09-02T01:51:45.424Z,11.18
2023-09-02T01:52:48.481Z,11.19
2023-09-02T01:53:50.008Z,11.20
2023-09-02T01:54:51.734Z,11.20
2023-09-02T01:55:53.910Z,11.20
2023-09-02T01:56:56.237Z,11.16
2023-09-02T01:57:59.117Z,11.19
2023-09-02T01:59:00.766Z,11.15
2023-09-02T02:00:02.225Z,11.14
2023-09-02T02:01:03.860Z,11.15
2023-09-02T02:02:05.464Z,11.14
2023-09-02T02:03:16.109Z,11.13
2023-09-02T02:04:26.822Z,11.12
2023-09-02T02:05:40.486Z,11.13
2023-09-02T02:06:44.488Z,11.18
2023-09-02T02:07:49.841Z,11.18
2023-09-02T02:08:58.420Z,11.15
2023-09-02T02:10:02.573Z,11.14
2023-09-02T02:11:06.562Z,11.12
2023-09-02T02:12:09.328Z,11.12
2023-09-02T02:13:10.810Z,11.12
2023-09-02T02:14:12.290Z,11.13
2023-09-02T02:15:13.735Z,11.12
2023-09-02T02:16:15.701Z,11.10
2023-09-02T02:17:17.171Z,11.09
2023-09-02T02:18:18.636Z,11.05
2023-09-02T02:19:20.178Z,11.07
2023-09-02T02:20:22.380Z,11.07
2023-09-02T02:21:24.565Z,11.06
2023-09-02T02:22:26.049Z,11.03
2023-09-02T02:23:27.487Z,11.05
2023-09-02T02:24:29.028Z,11.03
2023-09-02T02:25:30.491Z,11.02
2023-09-02T02:26:31.965Z,11.00
2023-09-02T02:27:33.431Z,11.00
2023-09-02T02:28:35.087Z,11.02
2023-09-02T02:29:36.559Z,11.01
2023-09-02T02:30:38.138Z,11.02
2023-09-02T02:31:39.636Z,11.00
2023-09-02T02:32:41.444Z,10.87
2023-09-02T02:33:42.951Z,10.97
2023-09-02T02:34:45.368Z,11.00
2023-09-02T02:35:47.020Z,10.99
2023-09-02T02:36:48.474Z,10.95
2023-09-02T02:37:53.130Z,10.93
2023-09-02T02:38:54.586Z,10.95
2023-09-02T02:39:56.089Z,10.96
2023-09-02T02:40:57.615Z,11.00
2023-09-02T02:41:59.071Z,11.01
2023-09-02T02:43:00.551Z,11.02
2023-09-02T02:44:02.327Z,11.02
2023-09-02T02:45:03.998Z,11.00
2023-09-02T02:46:05.617Z,11.02
2023-09-02T02:47:07.254Z,11.04
2023-09-02T02:48:16.124Z,11.03
2023-09-02T02:49:17.626Z,11.06
2023-09-02T02:50:19.069Z,11.06
2023-09-02T02:51:20.593Z,11.04
2023-09-02T02:52:22.526Z,11.05
2023-09-02T02:53:24.517Z,11.00
2023-09-02T02:54:25.983Z,10.99
2023-09-02T02:55:27.404Z,11.01
2023-09-02T02:56:28.875Z,10.99
2023-09-02T02:57:30.373Z,10.97
2023-09-02T02:58:33.839Z,10.96
2023-09-02T02:59:35.393Z,10.95
2023-09-02T03:00:36.821Z,10.97
2023-09-02T03:01:38.279Z,10.93
2023-09-02T03:02:39.880Z,10.91
2023-09-02T03:03:42.192Z,10.88
2023-09-02T03:04:49.074Z,10.89
2023-09-02T03:05:50.525Z,10.87
2023-09-02T03:06:52.042Z,10.84
2023-09-02T03:07:53.537Z,10.84
2023-09-02T03:08:55.006Z,10.82
2023-09-02T03:09:56.476Z,10.81
2023-09-02T03:11:03.114Z,10.83
2023-09-02T03:12:04.935Z,10.81
2023-09-02T03:13:06.723Z,10.81
2023-09-02T03:14:08.336Z,10.81
2023-09-02T03:15:09.918Z,10.82
2023-09-02T03:16:11.463Z,10.80
2023-09-02T03:17:13.004Z,10.79
2023-09-02T03:18:14.427Z,10.77
2023-09-02T03:19:15.869Z,10.73
2023-09-02T03:20:17.374Z,10.79
2023-09-02T03:21:18.936Z,10.78
2023-09-02T03:22:20.430Z,10.79
2023-09-02T03:23:23.141Z,10.79
2023-09-02T03:24:24.615Z,10.80
2023-09-02T03:25:28.401Z,10.79
2023-09-02T03:26:29.872Z,10.80
2023-09-02T03:27:31.358Z,10.81
2023-09-02T03:28:32.784Z,10.82
2023-09-02T03:29:34.456Z,10.82
2023-09-02T03:30:35.938Z,10.80
2023-09-02T03:31:37.600Z,10.81
2023-09-02T03:32:39.134Z,10.79
2023-09-02T03:33:40.734Z,10.78
2023-09-02T03:34:42.167Z,10.79
2023-09-02T03:35:43.747Z,10.77
2023-09-02T03:36:45.169Z,10.77
2023-09-02T03:37:46.767Z,10.77
2023-09-02T03:38:48.380Z,10.78
2023-09-02T03:39:49.953Z,10.75
2023-09-02T03:40:51.394Z,10.74
2023-09-02T03:41:52.817Z,10.74
2023-09-02T03:42:54.359Z,10.71
2023-09-02T03:43:57.027Z,10.71
2023-09-02T03:44:59.236Z,10.68
2023-09-02T03:46:00.709Z,10.65
2023-09-02T03:47:02.321Z,10.66
2023-09-02T03:48:04.319Z,10.66
2023-09-02T03:49:07.001Z,10.66
2023-09-02T03:50:08.677Z,10.67
2023-09-02T03:51:17.030Z,10.67
2023-09-02T03:52:18.491Z,10.66
2023-09-02T03:53:19.914Z,10.67
2023-09-02T03:54:21.811Z,10.70
2023-09-02T03:55:23.280Z,10.70
2023-09-02T03:56:24.797Z,10.70
2023-09-02T03:57:26.335Z,10.74
2023-09-02T03:58:29.502Z,10.75
2023-09-02T03:59:30.945Z,10.75
2023-09-02T04:00:32.392Z,10.74
2023-09-02T04:01:33.908Z,10.78
2023-09-02T04:02:35.395Z,10.78
2023-09-02T04:03:37.011Z,10.84
2023-09-02T04:04:38.605Z,10.85
2023-09-02T04:05:40.040Z,10.87
2023-09-02T04:06:41.502Z,10.86
2023-09-02T04:07:42.964Z,10.89
2023-09-02T04:08:44.398Z,10.91
2023-09-02T04:09:45.866Z,10.89
2023-09-02T04:10:55.167Z,10.92
2023-09-02T04:11:58.949Z,10.95
2023-09-02T04:13:00.410Z,10.96
2023-09-02T04:14:02.806Z,10.96
2023-09-02T04:15:04.891Z,10.95
2023-09-02T04:16:09.444Z,10.98
2023-09-02T04:17:13.509Z,10.97
2023-09-02T04:18:14.946Z,10.95
2023-09-02T04:19:18.780Z,10.91
2023-09-02T04:20:20.264Z,10.96
2023-09-02T04:21:21.745Z,10.95
2023-09-02T04:22:23.296Z,10.91
2023-09-02T04:23:24.725Z,10.92
2023-09-02T04:24:28.329Z,10.86
2023-09-02T04:25:29.813Z,10.86
2023-09-02T04:26:31.285Z,10.87
2023-09-02T04:27:32.713Z,10.86
2023-09-02T04:28:34.157Z,10.85
2023-09-02T04:29:35.587Z,10.82
2023-09-02T04:30:37.019Z,10.83
2023-09-02T04:31:38.443Z,10.82
2023-09-02T04:32:40.077Z,10.78
2023-09-02T04:33:41.642Z,10.78
2023-09-02T04:34:43.114Z,10.78
2023-09-02T04:35:46.278Z,10.78
2023-09-02T04:36:47.716Z,10.78
2023-09-02T04:37:49.199Z,10.78
2023-09-02T04:38:53.588Z,10.77
2023-09-02T04:39:55.056Z,10.78
2023-09-02T04:40:56.499Z,10.80
2023-09-02T04:41:57.948Z,10.71
2023-09-02T04:42:59.575Z,10.78
2023-09-02T04:44:01.052Z,10.76
2023-09-02T04:45:02.495Z,10.77
2023-09-02T04:46:04.899Z,10.76
2023-09-02T04:47:07.710Z,10.78
2023-09-02T04:48:10.543Z,10.75
2023-09-02T04:49:11.981Z,10.75
2023-09-02T04:50:13.463Z,10.75
2023-09-02T04:51:14.925Z,10.76
2023-09-02T04:52:16.456Z,10.78
2023-09-02T04:53:19.704Z,10.80
2023-09-02T04:54:21.497Z,10.82
2023-09-02T04:55:22.911Z,10.83
2023-09-02T04:56:24.692Z,10.85
2023-09-02T04:57:26.127Z,10.86
2023-09-02T04:58:28.712Z,10.86
2023-09-02T04:59:30.219Z,10.88
2023-09-02T05:00:31.875Z,10.90
2023-09-02T05:01:33.431Z,10.91
2023-09-02T05:02:34.956Z,10.96
2023-09-02T05:03:36.434Z,10.95
2023-09-02T05:04:37.883Z,11.02
2023-09-02T05:05:39.454Z,11.00
2023-09-02T05:06:40.929Z,11.05
2023-09-02T05:07:42.602Z,11.08
2023-09-02T05:08:44.066Z,11.08
2023-09-02T05:09:45.502Z,11.06
2023-09-02T05:10:46.970Z,11.13
2023-09-02T05:11:48.413Z,11.17
2023-09-02T05:12:49.859Z,11.19
2023-09-02T05:13:51.381Z,11.21
2023-09-02T05:14:52.825Z,11.24
2023-09-02T05:15:54.312Z,11.26
2023-09-02T05:16:55.782Z,11.26
2023-09-02T05:17:58.970Z,11.29
2023-09-02T05:19:00.588Z,11.31
2023-09-02T05:20:06.780Z,11.33
2023-09-02T05:21:08.254Z,11.37
2023-09-02T05:22:10.628Z,11.42
2023-09-02T05:23:13.412Z,11.48
2023-09-02T05:24:14.868Z,11.53
2023-09-02T05:25:16.387Z,11.57
2023-09-02T05:26:17.886Z,11.63
2023-09-02T05:27:20.926Z,11.71
2023-09-02T05:28:23.713Z,11.80
2023-09-02T05:29:25.166Z,11.90
2023-09-02T05:30:26.722Z,12.00
2023-09-02T05:31:28.209Z,12.05
2023-09-02T05:32:29.698Z,12.20
2023-09-02T05:33:31.349Z,12.31
2023-09-02T05:34:34.135Z,12.41
2023-09-02T05:35:36.826Z,12.49
2023-09-02T05:36:38.366Z,12.58
2023-09-02T05:37:39.823Z,12.67
2023-09-02T05:38:41.291Z,12.71
2023-09-02T05:39:42.841Z,12.80
2023-09-02T05:40:44.470Z,12.87
2023-09-02T05:41:46.415Z,12.92
2023-09-02T05:42:47.818Z,13.02
2023-09-02T05:43:49.294Z,13.11
2023-09-02T05:44:50.762Z,13.15
2023-09-02T05:45:52.281Z,13.22
2023-09-02T05:46:53.753Z,13.27
2023-09-02T05:47:55.200Z,13.27
2023-09-02T05:48:56.993Z,13.35
2023-09-02T05:49:58.412Z,13.39
2023-09-02T05:50:59.843Z,13.46
2023-09-02T05:52:01.269Z,13.48
2023-09-02T05:53:02.842Z,13.50
2023-09-02T05:54:04.535Z,13.49
2023-09-02T05:55:06.718Z,13.53
2023-09-02T05:56:08.204Z,13.54
2023-09-02T05:57:09.794Z,13.63
2023-09-02T05:58:11.265Z,13.68
2023-09-02T05:59:13.933Z,13.83
2023-09-02T06:00:15.568Z,13.82
2023-09-02T06:01:17.102Z,13.84
2023-09-02T06:02:18.557Z,13.90
2023-09-02T06:03:20.343Z,13.96
2023-09-02T06:04:22.002Z,13.92
2023-09-02T06:05:23.500Z,14.09
2023-09-02T06:06:25.483Z,14.17
2023-09-02T06:07:27.020Z,14.25
2023-09-02T06:08:29.295Z,14.24
2023-09-02T06:09:31.354Z,14.29
2023-09-02T06:10:32.819Z,14.32
2023-09-02T06:11:34.273Z,14.37
2023-09-02T06:12:35.747Z,14.42
2023-09-02T06:13:37.212Z,14.42
2023-09-02T06:14:38.696Z,14.45
2023-09-02T06:15:40.181Z,14.45
2023-09-02T06:16:41.693Z,14.45
2023-09-02T06:17:43.213Z,14.42
2023-09-02T06:18:44.653Z,14.38
2023-09-02T06:19:46.087Z,14.36
2023-09-02T06:20:47.570Z,14.43
2023-09-02T06:21:49.016Z,14.38
2023-09-02T06:22:50.425Z,14.32
2023-09-02T06:23:51.920Z,14.31
2023-09-02T06:24:55.457Z,14.31
2023-09-02T06:26:01.284Z,14.30
2023-09-02T06:27:04.887Z,14.32
2023-09-02T06:28:06.536Z,14.32
2023-09-02T06:29:08.135Z,14.36
2023-09-02T06:30:09.997Z,14.36
2023-09-02T06:31:11.863Z,14.47
2023-09-02T06:32:13.390Z,14.50
2023-09-02T06:33:16.468Z,14.50
2023-09-02T06:34:23.547Z,14.55
2023-09-02T06:35:24.986Z,14.64
2023-09-02T06:36:26.478Z,14.67
2023-09-02T06:37:30.092Z,14.76
2023-09-02T06:38:32.342Z,14.79
2023-09-02T06:39:33.809Z,14.81
2023-09-02T06:40:35.239Z,14.83
2023-09-02T06:41:36.707Z,14.81
2023-09-02T06:42:38.210Z,14.85
2023-09-02T06:43:40.224Z,14.88
2023-09-02T06:44:41.665Z,14.88
2023-09-02T06:45:43.142Z,14.88
2023-09-02T06:46:44.882Z,14.90
2023-09-02T06:47:46.431Z,14.90
2023-09-02T06:48:48.776Z,14.93
2023-09-02T06:49:50.542Z,14.95
2023-09-02T06:50:52.000Z,15.06
2023-09-02T06:51:53.463Z,15.18
2023-09-02T06:52:55.041Z,15.23
2023-09-02T06:53:56.523Z,15.27
2023-09-02T06:54:57.956Z,15.30
2023-09-02T06:55:59.423Z,15.30
2023-09-02T06:57:00.895Z,15.37
2023-09-02T06:58:02.730Z,15.41
2023-09-02T06:59:04.302Z,15.44
2023-09-02T07:00:06.534Z,15.42
2023-09-02T07:01:08.116Z,15.41
2023-09-02T07:02:09.642Z,15.46
2023-09-02T07:03:12.512Z,15.48
2023-09-02T07:04:14.564Z,15.48
2023-09-02T07:05:16.120Z,15.55
2023-09-02T07:06:17.789Z,15.57
2023-09-02T07:07:19.276Z,15.58
2023-09-02T07:08:20.805Z,15.64
2023-09-02T07:09:22.277Z,15.73
2023-09-02T07:10:23.725Z,15.81
2023-09-02T07:11:25.556Z,15.86
2023-09-02T07:12:27.938Z,15.91
2023-09-02T07:13:29.482Z,15.97
2023-09-02T07:14:30.957Z,16.07
2023-09-02T07:15:32.423Z,16.10
2023-09-02T07:16:33.888Z,16.14
2023-09-02T07:17:35.366Z,16.10
2023-09-02T07:18:36.835Z,16.13
2023-09-02T07:19:38.399Z,16.21
2023-09-02T07:20:39.863Z,16.18
2023-09-02T07:21:41.310Z,16.25
2023-09-02T07:22:42.799Z,16.25
2023-09-02T07:23:44.246Z,16.28
2023-09-02T07:24:45.741Z,16.28
2023-09-02T07:25:47.273Z,16.30
2023-09-02T07:26:48.700Z,16.38
2023-09-02T07:27:50.166Z,16.43
2023-09-02T07:28:51.646Z,16.41
2023-09-02T07:29:53.147Z,16.46
2023-09-02T07:30:57.256Z,16.49
2023-09-02T07:31:58.744Z,16.47
2023-09-02T07:33:00.369Z,16.55
2023-09-02T07:34:01.865Z,16.58
2023-09-02T07:35:03.425Z,16.62
2023-09-02T07:36:12.453Z,16.64
2023-09-02T07:37:13.932Z,16.68
2023-09-02T07:38:15.484Z,16.72
2023-09-02T07:39:17.834Z,16.75
2023-09-02T07:40:19.406Z,16.77
2023-09-02T07:41:20.884Z,16.76
2023-09-02T07:42:22.364Z,16.79
2023-09-02T07:43:23.828Z,16.82
2023-09-02T07:44:25.286Z,16.86
2023-09-02T07:45:26.794Z,16.88
2023-09-02T07:46:28.271Z,16.91
2023-09-02T07:47:30.234Z,16.94
2023-09-02T07:48:31.892Z,17.01
2023-09-02T07:49:33.354Z,17.06
2023-09-02T07:50:34.793Z,17.11
2023-09-02T07:51:36.258Z,17.15
2023-09-02T07:52:37.713Z,17.19
2023-09-02T07:53:39.165Z,17.29
2023-09-02T07:54:40.773Z,17.31
2023-09-02T07:55:42.373Z,17.35
2023-09-02T07:56:43.942Z,17.41
2023-09-02T07:57:45.429Z,17.47
2023-09-02T07:58:49.536Z,17.47
2023-09-02T07:59:51.098Z,17.48
2023-09-02T08:00:56.909Z,17.48
2023-09-02T08:01:58.510Z,17.53
2023-09-02T08:03:00.234Z,17.52
2023-09-02T08:04:04.758Z,17.51
2023-09-02T08:05:07.833Z,17.50
2023-09-02T08:06:09.981Z,17.46
2023-09-02T08:07:11.437Z,17.44
2023-09-02T08:08:12.962Z,17.45
2023-09-02T08:09:14.963Z,17.42
2023-09-02T08:10:16.623Z,17.48
2023-09-02T08:11:19.055Z,17.52
2023-09-02T08:12:20.668Z,17.57
2023-09-02T08:13:22.088Z,17.63
2023-09-02T08:14:23.543Z,17.63
2023-09-02T08:15:25.697Z,17.66
2023-09-02T08:16:27.245Z,17.72
2023-09-02T08:17:28.712Z,17.77
2023-09-02T08:18:30.305Z,17.73
2023-09-02T08:19:32.821Z,17.76
2023-09-02T08:20:36.638Z,17.72
2023-09-02T08:21:38.108Z,17.82
2023-09-02T08:22:40.701Z,17.93
2023-09-02T08:23:42.433Z,17.92
2023-09-02T08:24:43.871Z,17.94
2023-09-02T08:25:45.574Z,18.03
2023-09-02T08:26:47.022Z,18.10
2023-09-02T08:27:48.787Z,18.19
2023-09-02T08:28:50.228Z,18.23
2023-09-02T08:29:52.839Z,18.35
2023-09-02T08:30:54.367Z,18.41
2023-09-02T08:31:56.802Z,18.44
2023-09-02T08:32:58.429Z,18.44
2023-09-02T08:33:59.907Z,18.42
2023-09-02T08:35:01.351Z,18.40
2023-09-02T08:36:02.831Z,18.39
2023-09-02T08:37:04.624Z,18.46
2023-09-02T08:38:06.157Z,18.51
2023-09-02T08:39:07.675Z,18.61
2023-09-02T08:40:09.721Z,18.65
2023-09-02T08:41:25.578Z,18.58
2023-09-02T08:42:27.801Z,18.59
2023-09-02T08:43:30.090Z,18.62
2023-09-02T08:44:36.126Z,18.61
2023-09-02T08:45:42.304Z,18.71
2023-09-02T08:46:46.600Z,18.76
2023-09-02T08:47:52.259Z,18.83
2023-09-02T08:48:56.531Z,18.87
2023-09-02T08:49:59.138Z,18.89
2023-09-02T08:51:01.396Z,18.92
2023-09-02T08:52:03.014Z,19.00
2023-09-02T08:53:04.899Z,19.05
2023-09-02T08:54:06.652Z,19.16
2023-09-02T08:55:11.922Z,19.25
2023-09-02T08:56:14.124Z,19.21
2023-09-02T08:57:17.545Z,19.32
2023-09-02T08:58:20.486Z,19.34
2023-09-02T08:59:22.011Z,19.32
2023-09-02T09:00:24.569Z,19.28
2023-09-02T09:01:26.155Z,19.32
2023-09-02T09:02:28.805Z,19.09
2023-09-02T09:03:32.322Z,19.19
2023-09-02T09:04:37.441Z,19.16
2023-09-02T09:05:41.386Z,19.25
2023-09-02T09:06:43.554Z,19.27
2023-09-02T09:07:46.396Z,19.32
2023-09-02T09:08:48.970Z,19.32
2023-09-02T09:09:53.521Z,19.29
2023-09-02T09:10:57.165Z,19.26
2023-09-02T09:12:02.616Z,19.22
2023-09-02T09:13:12.219Z,19.18
2023-09-02T09:14:19.102Z,19.15
2023-09-02T09:15:23.796Z,19.20
2023-09-02T09:16:26.946Z,19.13
2023-09-02T09:17:29.809Z,19.12
2023-09-02T09:18:31.422Z,19.17
2023-09-02T09:19:34.832Z,19.15
2023-09-02T09:20:36.957Z,19.24
2023-09-02T09:21:38.432Z,19.32
2023-09-02T09:22:40.516Z,19.30
2023-09-02T09:23:42.012Z,19.34
2023-09-02T09:24:43.538Z,19.32
2023-09-02T09:25:50.337Z,19.39
2023-09-02T09:26:52.258Z,19.45
2023-09-02T09:27:53.876Z,19.56
2023-09-02T09:28:59.795Z,19.60
2023-09-02T09:30:01.602Z,19.67
2023-09-02T09:31:16.250Z,19.69
2023-09-02T09:32:19.429Z,19.75
2023-09-02T09:33:21.297Z,19.77
2023-09-02T09:34:36.521Z,19.81
2023-09-02T09:35:38.262Z,19.87
2023-09-02T09:36:41.336Z,19.93
2023-09-02T09:37:54.175Z,20.03
2023-09-02T09:38:58.273Z,20.10
2023-09-02T09:39:59.738Z,20.14
2023-09-02T09:41:01.286Z,20.23
2023-09-02T09:42:02.787Z,20.25
2023-09-02T09:43:17.528Z,20.40
2023-09-02T09:44:19.203Z,20.41
2023-09-02T09:45:20.835Z,20.46
2023-09-02T09:46:22.465Z,20.52
2023-09-02T09:47:26.150Z,20.62
2023-09-02T09:48:27.695Z,20.72
2023-09-02T09:49:31.330Z,20.81
2023-09-02T09:50:32.775Z,20.90
2023-09-02T09:51:34.233Z,20.98
2023-09-02T09:52:35.686Z,21.00
2023-09-02T09:53:47.222Z,21.00
2023-09-02T09:54:53.637Z,21.01
2023-09-02T09:55:55.416Z,21.16
2023-09-02T09:56:58.006Z,21.32
2023-09-02T09:58:00.171Z,21.37
2023-09-02T09:59:09.665Z,21.45
2023-09-02T10:00:15.963Z,21.55
2023-09-02T10:01:22.913Z,21.39
2023-09-02T10:02:25.000Z,21.25
2023-09-02T10:03:31.770Z,21.32
2023-09-02T10:04:33.972Z,21.33
2023-09-02T10:05:36.465Z,21.41
2023-09-02T10:06:39.491Z,21.53
2023-09-02T10:07:40.974Z,21.58
2023-09-02T10:08:53.491Z,21.69
2023-09-02T10:09:56.508Z,21.69
2023-09-02T10:10:58.007Z,21.77
2023-09-02T10:12:11.463Z,21.79
2023-09-02T10:13:12.925Z,21.91
2023-09-02T10:14:15.444Z,21.92
2023-09-02T10:15:16.964Z,22.12
2023-09-02T10:16:18.943Z,22.23
2023-09-02T10:17:20.901Z,22.11
2023-09-02T10:18:24.455Z,22.29
2023-09-02T10:19:25.934Z,22.23
2023-09-02T10:20:30.017Z,22.42
2023-09-02T10:21:34.607Z,22.55
2023-09-02T10:22:40.510Z,22.68
2023-09-02T10:24:05.308Z,22.65
2023-09-02T10:25:25.137Z,22.59
2023-09-02T10:26:38.185Z,22.70
2023-09-02T10:27:43.824Z,22.73
2023-09-02T10:28:47.958Z,22.61
2023-09-02T10:29:56.024Z,22.73
2023-09-02T10:31:00.822Z,22.60
2023-09-02T10:32:10.620Z,22.58
2023-09-02T10:33:46.816Z,22.72
2023-09-02T10:35:07.502Z,23.11
2023-09-02T10:36:09.640Z,23.24
2023-09-02T10:37:15.180Z,23.35
2023-09-02T10:38:20.991Z,23.63
2023-09-02T10:39:35.553Z,23.83
2023-09-02T10:40:40.350Z,23.56
2023-09-02T10:41:42.686Z,23.47
2023-09-02T10:42:45.321Z,23.50
2023-09-02T10:43:47.665Z,23.23
2023-09-02T10:44:49.276Z,23.42
2023-09-02T10:45:51.445Z,23.73
2023-09-02T10:46:56.295Z,24.03
2023-09-02T10:48:00.469Z,24.05
2023-09-02T10:49:02.488Z,24.07
2023-09-02T10:50:05.383Z,23.99
2023-09-02T10:51:08.660Z,23.98
2023-09-02T10:52:13.796Z,23.96
2023-09-02T10:53:16.295Z,23.62
2023-09-02T10:54:17.769Z,23.28
2023-09-02T10:55:19.309Z,23.53
2023-09-02T10:56:34.010Z,23.15
2023-09-02T10:57:50.093Z,23.35
2023-09-02T10:58:51.538Z,23.55
2023-09-02T11:00:41.498Z,23.72
2023-09-02T11:01:49.892Z,23.65
2023-09-02T11:02:54.173Z,23.72
2023-09-02T11:03:56.338Z,23.85
2023-09-02T11:04:58.599Z,23.93
2023-09-02T11:06:07.361Z,24.10
2023-09-02T11:07:21.143Z,24.31
2023-09-02T11:08:51.305Z,24.49
2023-09-02T11:09:55.090Z,24.14
2023-09-02T11:10:56.943Z,24.11
2023-09-02T11:12:11.562Z,24.28
2023-09-02T11:13:13.045Z,24.09
2023-09-02T11:14:17.630Z,24.20
2023-09-02T11:15:19.758Z,24.05
2023-09-02T11:16:21.414Z,23.98
2023-09-02T11:17:30.798Z,24.08
2023-09-02T11:18:35.793Z,24.14
2023-09-02T11:20:08.433Z,24.42
2023-09-02T11:21:09.918Z,24.54
2023-09-02T11:22:50.379Z,24.66
2023-09-02T11:23:51.942Z,24.56
2023-09-02T11:24:53.533Z,24.72
2023-09-02T11:26:03.068Z,24.73
2023-09-02T11:27:04.841Z,25.08
2023-09-02T11:28:27.455Z,24.72
2023-09-02T11:29:30.533Z,24.76
2023-09-02T11:30:34.277Z,24.80
2023-09-02T11:32:05.665Z,24.83
2023-09-02T11:33:07.822Z,24.51
2023-09-02T11:34:09.409Z,24.46
2023-09-02T11:35:12.693Z,24.59
2023-09-02T11:36:19.002Z,24.52
2023-09-02T11:37:31.478Z,24.41
2023-09-02T11:38:35.077Z,24.56
2023-09-02T11:39:36.995Z,24.83
2023-09-02T11:40:38.541Z,24.54
2023-09-02T11:41:39.980Z,24.86
2023-09-02T11:43:02.381Z,25.00
2023-09-02T11:44:11.967Z,24.86
2023-09-02T11:45:15.162Z,25.01
2023-09-02T11:46:16.683Z,25.34
2023-09-02T11:47:18.415Z,25.40
2023-09-02T11:48:19.998Z,25.64
2023-09-02T11:49:28.076Z,25.85
2023-09-02T11:50:29.786Z,26.04
2023-09-02T11:51:31.288Z,26.13
2023-09-02T11:52:33.462Z,26.33
2023-09-02T11:53:34.969Z,26.60
2023-09-02T11:54:40.674Z,26.70
2023-09-02T11:55:42.191Z,26.55
2023-09-02T11:56:56.534Z,26.70
2023-09-02T11:57:58.056Z,27.03
2023-09-02T11:58:59.493Z,27.05
2023-09-02T12:00:01.013Z,27.32
2023-09-02T12:01:02.499Z,26.93
2023-09-02T12:02:17.722Z,26.98
2023-09-02T12:03:28.707Z,26.96
2023-09-02T12:04:41.332Z,27.14
2023-09-02T12:05:54.169Z,27.29
2023-09-02T12:06:55.852Z,27.40
2023-09-02T12:07:57.978Z,27.63
2023-09-02T12:09:00.785Z,27.83
2023-09-02T12:10:11.255Z,27.89
2023-09-02T12:11:13.726Z,27.89
2023-09-02T12:12:18.297Z,27.48
2023-09-02T12:13:20.178Z,27.28
2023-09-02T12:14:21.921Z,27.21
2023-09-02T12:15:23.603Z,27.36
2023-09-02T12:16:26.818Z,27.00
2023-09-02T12:17:29.065Z,27.22
2023-09-02T12:18:30.782Z,26.91
2023-09-02T12:19:32.890Z,27.05
2023-09-02T12:20:34.636Z,26.96
2023-09-02T12:21:37.484Z,26.72
2023-09-02T12:22:39.701Z,26.73
2023-09-02T12:23:41.345Z,26.61
2023-09-02T12:24:42.830Z,26.52
2023-09-02T12:26:03.343Z,25.89
2023-09-02T12:27:05.882Z,25.97
2023-09-02T12:28:15.892Z,25.99
2023-09-02T12:29:19.761Z,25.28
2023-09-02T12:30:29.511Z,25.54
2023-09-02T12:31:31.007Z,25.35
2023-09-02T12:32:32.529Z,25.12
2023-09-02T12:33:37.455Z,24.69
2023-09-02T12:34:41.390Z,24.62
2023-09-02T12:35:52.002Z,24.61
2023-09-02T12:36:53.435Z,24.38
2023-09-02T12:38:05.927Z,24.38
2023-09-02T12:39:07.369Z,24.27
2023-09-02T12:40:11.109Z,24.51
2023-09-02T12:41:12.682Z,24.32
2023-09-02T12:42:25.832Z,24.43
2023-09-02T12:43:28.645Z,24.07
2023-09-02T12:44:30.182Z,24.02
2023-09-02T12:45:33.412Z,24.03
2023-09-02T12:46:35.484Z,24.14
2023-09-02T12:47:38.678Z,23.81
2023-09-02T12:48:40.166Z,23.81
2023-09-02T12:49:44.915Z,23.81
2023-09-02T12:50:46.440Z,23.87
2023-09-02T12:51:47.879Z,23.65
2023-09-02T12:52:56.095Z,23.60
2023-09-02T12:53:57.857Z,23.66
2023-09-02T12:55:00.631Z,23.54
2023-09-02T12:56:02.556Z,23.65
2023-09-02T12:57:04.207Z,23.52
2023-09-02T12:58:05.642Z,23.30
2023-09-02T12:59:07.373Z,23.38
2023-09-02T13:00:09.380Z,23.36
2023-09-02T13:01:10.824Z,23.18
2023-09-02T13:02:12.366Z,23.03
2023-09-02T13:03:13.940Z,23.00
2023-09-02T13:04:15.463Z,22.99
2023-09-02T13:05:17.164Z,23.01
2023-09-02T13:06:18.708Z,22.74
2023-09-02T13:07:20.965Z,22.67
2023-09-02T13:08:22.435Z,22.63
2023-09-02T13:09:24.085Z,22.32
2023-09-02T13:10:25.599Z,22.28
2023-09-02T13:11:27.983Z,21.89
2023-09-02T13:12:29.697Z,22.07
2023-09-02T13:13:31.677Z,22.12
2023-09-02T13:14:33.202Z,22.12
2023-09-02T13:15:34.768Z,21.96
2023-09-02T13:16:36.286Z,22.08
2023-09-02T13:17:37.911Z,21.90
2023-09-02T13:18:39.512Z,21.91
2023-09-02T13:19:40.959Z,21.96
2023-09-02T13:20:42.377Z,21.78
2023-09-02T13:21:43.808Z,21.83
2023-09-02T13:22:47.300Z,21.82
2023-09-02T13:23:50.139Z,21.98
2023-09-02T13:24:52.546Z,22.06
2023-09-02T13:25:54.028Z,21.79
2023-09-02T13:26:56.907Z,21.66
2023-09-02T13:28:00.920Z,21.64
2023-09-02T13:29:04.800Z,21.69
2023-09-02T13:30:06.885Z,21.87
2023-09-02T13:31:08.542Z,21.90
2023-09-02T13:32:15.782Z,21.90
2023-09-02T13:33:17.634Z,21.87
2023-09-02T13:34:34.179Z,21.93
2023-09-02T13:35:35.910Z,22.04
2023-09-02T13:36:37.370Z,22.02